Time;durP1;ratioP1;P1;durP2;ratioP2;P2;SDS_P1;SDS_P2;PMS_P1;PMS_P2;Temp;Humidity;BMP_temperature;BMP_pressure;BME280_temperature;BME280_humidity;BME280_pressure;Samples;Min_cycle;Max_cycle;Signal;HPM_P1;HPM_P2
2021/01/22 00:02:21;;;;;;;2.40;0.55;;;4.50;99.90;;;;;;4902153;29;20039;-87
2021/01/22 00:04:47;;;;;;;1.67;0.98;;;4.50;99.90;;;;;;4915729;29;20051;-86
2021/01/22 00:07:13;;;;;;;2.35;1.00;;;4.40;99.90;;;;;;4914816;29;20054;-87
2021/01/22 00:09:39;;;;;;;1.95;0.93;;;4.40;99.90;;;;;;4884681;29;20099;-87
2021/01/22 00:12:05;;;;;;;2.08;0.70;;;4.40;99.90;;;;;;4930409;29;20123;-88
2021/01/22 00:14:31;;;;;;;1.25;0.52;;;4.30;99.90;;;;;;4915772;29;20046;-87
2021/01/22 00:16:57;;;;;;;1.83;0.60;;;4.30;99.90;;;;;;4915458;29;20051;-88
2021/01/22 00:19:23;;;;;;;0.65;0.30;;;4.30;99.90;;;;;;4929863;29;20937;-88
2021/01/22 00:21:48;;;;;;;0.85;0.85;;;4.10;99.90;;;;;;4947251;29;20502;-87
2021/01/22 00:24:14;;;;;;;1.58;1.33;;;4.10;99.90;;;;;;4912454;29;20099;-87
2021/01/22 00:26:40;;;;;;;1.75;1.10;;;4.10;99.90;;;;;;4931609;29;20126;-85
2021/01/22 00:29:06;;;;;;;1.98;1.88;;;4.10;99.90;;;;;;4930802;29;20052;-87
2021/01/22 00:31:32;;;;;;;1.38;1.15;;;4.10;99.90;;;;;;4930901;29;20494;-86
2021/01/22 00:33:58;;;;;;;0.25;0.25;;;4.10;99.90;;;;;;4930909;29;20058;-87
2021/01/22 00:36:24;;;;;;;1.50;0.70;;;4.00;99.90;;;;;;4930512;29;20040;-87
2021/01/22 00:38:49;;;;;;;0.65;0.20;;;4.00;99.90;;;;;;4931144;29;20047;-86
2021/01/22 00:41:16;;;;;;;1.73;1.48;;;3.90;99.90;;;;;;4946087;29;20083;-86
2021/01/22 00:43:42;;;;;;;3.15;2.45;;;3.80;99.90;;;;;;4932120;29;20048;-87
2021/01/22 00:46:07;;;;;;;0.73;0.30;;;3.80;99.90;;;;;;4946721;29;20406;-86
2021/01/22 00:48:33;;;;;;;0.95;0.28;;;3.70;99.90;;;;;;4931022;29;20062;-86
2021/01/22 00:50:59;;;;;;;1.23;0.20;;;3.70;99.90;;;;;;4931405;29;20066;-87
2021/01/22 00:53:25;;;;;;;2.60;0.13;;;3.70;99.90;;;;;;4945878;29;20047;-86
2021/01/22 00:55:50;;;;;;;2.15;0.28;;;3.70;99.90;;;;;;4947184;29;20402;-87
2021/01/22 00:58:16;;;;;;;7.57;2.00;;;3.60;99.90;;;;;;4945762;29;20488;-86
2021/01/22 01:00:42;;;;;;;11.38;4.80;;;3.60;99.90;;;;;;4914092;29;20047;-87
2021/01/22 01:03:08;;;;;;;9.93;6.22;;;3.60;99.90;;;;;;4883047;29;20086;-87
2021/01/22 01:05:33;;;;;;;2.75;1.58;;;3.60;99.90;;;;;;4946678;29;20483;-87
2021/01/22 01:07:59;;;;;;;0.20;0.20;;;3.70;99.90;;;;;;4915298;29;20051;-86
2021/01/22 01:10:25;;;;;;;1.55;0.30;;;3.70;99.90;;;;;;4929815;29;20646;-88
2021/01/22 01:12:50;;;;;;;1.13;0.50;;;3.70;99.90;;;;;;4930407;29;20492;-85
2021/01/22 01:15:16;;;;;;;1.02;0.40;;;3.70;99.90;;;;;;4931438;29;20061;-86
2021/01/22 01:17:42;;;;;;;4.03;0.50;;;3.70;99.90;;;;;;4931081;29;20044;-87
2021/01/22 01:20:10;;;;;;;3.40;0.40;;;3.70;99.90;;;;;;4914758;29;20123;-90
2021/01/22 01:22:36;;;;;;;3.88;0.32;;;3.70;99.90;;;;;;4931529;29;20048;-85
2021/01/22 01:25:07;;;;;;;1.75;0.30;;;3.70;99.90;;;;;;4946756;29;20048;-86
2021/01/22 01:27:33;;;;;;;6.63;0.82;;;3.70;99.90;;;;;;4946491;29;20478;-86
2021/01/22 01:29:59;;;;;;;1.63;0.73;;;3.60;99.90;;;;;;4932713;29;20050;-86
2021/01/22 01:32:25;;;;;;;2.28;0.85;;;3.60;99.90;;;;;;4917470;29;20051;-88
2021/01/22 01:34:51;;;;;;;2.17;0.60;;;3.60;99.90;;;;;;4918444;29;20091;-86
2021/01/22 01:37:16;;;;;;;5.93;0.70;;;3.60;99.90;;;;;;4933584;29;20156;-85
2021/01/22 01:39:42;;;;;;;2.58;1.80;;;3.50;99.90;;;;;;4917354;29;20044;-86
2021/01/22 01:42:09;;;;;;;6.68;1.67;;;3.50;99.90;;;;;;4948931;29;20387;-90
2021/01/22 01:44:35;;;;;;;3.25;0.60;;;3.50;99.90;;;;;;4934595;29;20043;-86
2021/01/22 01:47:00;;;;;;;3.40;0.52;;;3.40;99.90;;;;;;4933884;29;20531;-86
2021/01/22 01:49:26;;;;;;;2.22;0.70;;;3.50;99.90;;;;;;4923466;29;20044;-86
2021/01/22 01:51:52;;;;;;;2.78;0.60;;;3.40;99.90;;;;;;4925001;29;20047;-86
2021/01/22 01:54:19;;;;;;;6.97;1.10;;;3.40;99.90;;;;;;4932967;29;20048;-86
2021/01/22 01:56:46;;;;;;;5.75;1.20;;;3.40;99.90;;;;;;4933853;29;20075;-88
2021/01/22 01:59:14;;;;;;;3.78;0.50;;;3.40;99.90;;;;;;4948972;29;20099;-88
2021/01/22 02:01:40;;;;;;;4.32;1.00;;;3.40;99.90;;;;;;4941906;29;20051;-85
2021/01/22 02:04:06;;;;;;;5.68;0.77;;;3.40;99.90;;;;;;4950092;28;20465;-86
2021/01/22 02:06:32;;;;;;;2.05;0.80;;;3.30;99.90;;;;;;4933117;29;20152;-86
2021/01/22 02:08:59;;;;;;;4.07;0.60;;;3.30;99.90;;;;;;4933530;29;20482;-87
2021/01/22 02:11:26;;;;;;;2.28;0.70;;;3.30;99.90;;;;;;4933845;29;20524;-88
2021/01/22 02:13:54;;;;;;;5.13;1.13;;;3.30;99.90;;;;;;4948586;29;20486;-88
2021/01/22 02:16:21;;;;;;;2.88;0.82;;;3.30;99.90;;;;;;4921586;29;20430;-86
2021/01/22 02:18:47;;;;;;;4.97;0.73;;;3.30;99.90;;;;;;4949108;29;20079;-86
2021/01/22 02:21:34;;;;;;;3.10;0.50;;;3.30;99.90;;;;;;4932725;29;20107;-88
2021/01/22 02:24:16;;;;;;;4.97;0.65;;;3.30;99.90;;;;;;4934559;29;20393;-84
2021/01/22 02:26:58;;;;;;;2.03;0.47;;;3.30;99.90;;;;;;4924714;29;20047;-84
2021/01/22 02:29:27;;;;;;;29.35;1.15;;;3.30;99.90;;;;;;4931862;29;20087;-83
2021/01/22 02:31:55;;;;;;;3.65;0.50;;;3.20;99.90;;;;;;4933963;29;20048;-83
2021/01/22 02:34:26;;;;;;;4.20;0.70;;;3.30;99.90;;;;;;4931907;29;20103;-84
2021/01/22 02:36:57;;;;;;;2.97;0.85;;;3.30;99.90;;;;;;4917334;29;20508;-85
2021/01/22 02:39:26;;;;;;;2.75;0.80;;;3.30;99.90;;;;;;4933016;29;20043;-84
2021/01/22 02:41:56;;;;;;;4.07;0.68;;;3.40;99.90;;;;;;4931356;29;20052;-85
2021/01/22 02:44:22;;;;;;;3.22;0.82;;;3.30;99.90;;;;;;4933143;29;20073;-85
2021/01/22 02:46:51;;;;;;;1.45;0.73;;;3.30;99.90;;;;;;4932967;29;20130;-85
2021/01/22 02:49:17;;;;;;;1.10;0.47;;;3.20;99.90;;;;;;4932981;29;20039;-89
2021/01/22 02:51:45;;;;;;;2.88;0.60;;;3.20;99.90;;;;;;4933130;29;20039;-84
2021/01/22 02:54:11;;;;;;;2.13;0.45;;;3.30;99.90;;;;;;4948228;29;20095;-85
2021/01/22 02:56:49;;;;;;;1.65;0.88;;;3.20;99.90;;;;;;4903620;29;20056;-86
2021/01/22 02:59:26;;;;;;;2.05;0.60;;;3.30;99.90;;;;;;4932154;29;20050;-87
2021/01/22 03:02:18;;;;;;;1.60;0.77;;;3.30;99.90;;;;;;4948186;28;20374;-85
2021/01/22 03:04:44;;;;;;;1.00;0.60;;;3.30;99.90;;;;;;4933564;29;20050;-85
2021/01/22 03:07:14;;;;;;;2.70;0.80;;;3.40;99.90;;;;;;4932237;29;20560;-84
2021/01/22 03:09:43;;;;;;;1.73;0.57;;;3.30;99.90;;;;;;4933150;29;20054;-84
2021/01/22 03:12:11;;;;;;;6.40;0.70;;;3.30;99.90;;;;;;4933753;29;20425;-84
2021/01/22 03:14:39;;;;;;;3.30;0.75;;;3.30;99.90;;;;;;4933274;29;20620;-85
2021/01/22 03:17:05;;;;;;;2.00;0.60;;;3.30;99.90;;;;;;4933621;29;20134;-87
2021/01/22 03:19:47;;;;;;;1.63;0.63;;;3.30;99.90;;;;;;4932604;29;20035;-84
2021/01/22 03:22:14;;;;;;;1.65;0.60;;;3.40;99.90;;;;;;4916811;29;20508;-85
2021/01/22 03:24:41;;;;;;;1.17;0.50;;;3.40;99.90;;;;;;4902812;29;20245;-84
2021/01/22 03:27:07;;;;;;;3.08;0.60;;;3.40;99.90;;;;;;4933527;29;20058;-84
2021/01/22 03:29:35;;;;;;;0.88;0.35;;;3.40;99.90;;;;;;4919420;29;20039;-85
2021/01/22 03:32:03;;;;;;;1.23;0.65;;;3.40;99.90;;;;;;4934301;29;20047;-85
2021/01/22 03:34:29;;;;;;;3.60;0.60;;;3.40;99.90;;;;;;4931232;29;20130;-84
2021/01/22 03:37:00;;;;;;;5.13;0.70;;;3.40;99.90;;;;;;4932994;29;20557;-84
2021/01/22 03:39:27;;;;;;;5.70;0.77;;;3.40;99.90;;;;;;4932295;29;20044;-85
2021/01/22 03:41:53;;;;;;;3.75;0.63;;;3.40;99.90;;;;;;4946852;29;20060;-86
2021/01/22 03:44:19;;;;;;;0.95;0.60;;;3.50;99.90;;;;;;4931659;29;20565;-88
2021/01/22 03:46:47;;;;;;;0.77;0.50;;;3.50;99.90;;;;;;4946739;29;20051;-84
2021/01/22 03:49:13;;;;;;;4.57;0.70;;;3.50;99.90;;;;;;4905792;29;20059;-85
2021/01/22 03:51:39;;;;;;;1.17;0.80;;;3.40;99.90;;;;;;4917659;29;20291;-84
2021/01/22 03:54:05;;;;;;;2.78;0.77;;;3.40;99.90;;;;;;4932503;29;20128;-86
2021/01/22 03:56:32;;;;;;;10.75;1.23;;;3.40;99.90;;;;;;4946773;29;20103;-84
2021/01/22 03:58:57;;;;;;;5.22;1.02;;;3.40;99.90;;;;;;4931663;29;20553;-84
2021/01/22 04:01:23;;;;;;;3.92;0.98;;;3.40;99.90;;;;;;4930876;29;20048;-86
2021/01/22 04:03:49;;;;;;;6.13;1.30;;;3.40;99.90;;;;;;4932610;29;20184;-84
2021/01/22 04:06:15;;;;;;;1.42;1.23;;;3.40;99.90;;;;;;4932165;29;20051;-83
2021/01/22 04:08:42;;;;;;;1.88;1.23;;;3.40;99.90;;;;;;4930437;29;20115;-83
2021/01/22 04:11:08;;;;;;;4.10;1.27;;;3.40;99.90;;;;;;4917982;29;20046;-83
2021/01/22 04:13:34;;;;;;;1.95;1.02;;;3.30;99.90;;;;;;4930344;29;20051;-83
2021/01/22 04:16:03;;;;;;;4.55;1.20;;;3.40;99.90;;;;;;4915377;29;20040;-83
2021/01/22 04:18:29;;;;;;;2.93;1.13;;;3.40;99.90;;;;;;4930622;29;20078;-84
2021/01/22 04:20:55;;;;;;;3.75;1.23;;;3.30;99.90;;;;;;4930852;29;20789;-83
2021/01/22 04:23:21;;;;;;;5.28;2.33;;;3.30;99.90;;;;;;4932320;29;20131;-83
2021/01/22 04:25:47;;;;;;;4.90;1.63;;;3.30;99.90;;;;;;4930258;29;20126;-85
2021/01/22 04:28:13;;;;;;;3.72;1.30;;;3.30;99.90;;;;;;4931201;29;20048;-84
2021/01/22 04:30:39;;;;;;;2.67;1.55;;;3.30;99.90;;;;;;4930517;29;20138;-84
2021/01/22 04:33:06;;;;;;;9.57;1.40;;;3.40;99.90;;;;;;4914804;29;20047;-84
2021/01/22 04:35:32;;;;;;;2.90;1.50;;;3.30;99.90;;;;;;4930161;29;20565;-83
2021/01/22 04:37:58;;;;;;;5.00;1.35;;;3.20;99.90;;;;;;4931839;29;20446;-84
2021/01/22 04:40:27;;;;;;;2.90;1.30;;;3.30;99.90;;;;;;4930903;29;20051;-83
2021/01/22 04:42:53;;;;;;;7.20;1.42;;;3.20;99.90;;;;;;4931371;29;20067;-86
2021/01/22 04:45:19;;;;;;;6.43;1.50;;;3.20;99.90;;;;;;4931045;29;20660;-84
2021/01/22 04:47:45;;;;;;;2.85;1.42;;;3.20;99.90;;;;;;4930054;29;20054;-84
2021/01/22 04:50:12;;;;;;;5.88;1.60;;;3.10;99.90;;;;;;4916894;29;20035;-84
2021/01/22 04:52:39;;;;;;;4.70;1.52;;;3.10;99.90;;;;;;4930109;29;20068;-84
2021/01/22 04:55:11;;;;;;;6.75;1.63;;;3.10;99.90;;;;;;4932311;29;20102;-86
2021/01/22 04:57:47;;;;;;;5.45;1.42;;;3.10;99.90;;;;;;4932001;29;20158;-86
2021/01/22 05:00:14;;;;;;;6.53;1.80;;;3.00;99.90;;;;;;4911941;29;20099;-86
2021/01/22 05:02:41;;;;;;;5.13;1.50;;;3.00;99.90;;;;;;4943181;28;20039;-83
2021/01/22 05:05:08;;;;;;;10.65;2.30;;;3.10;99.90;;;;;;4947747;28;20422;-84
2021/01/22 05:07:35;;;;;;;9.45;1.83;;;3.10;99.90;;;;;;4935014;29;20043;-84
2021/01/22 05:10:01;;;;;;;6.95;1.58;;;3.10;99.90;;;;;;4928806;29;20043;-85
2021/01/22 05:12:37;;;;;;;8.95;2.55;;;3.10;99.90;;;;;;4912700;29;20040;-84
2021/01/22 05:15:20;;;;;;;3.92;1.30;;;3.20;99.90;;;;;;4935708;29;20103;-84
2021/01/22 05:18:05;;;;;;;7.47;1.73;;;3.10;99.90;;;;;;4934359;29;20478;-84
2021/01/22 05:20:39;;;;;;;10.90;2.33;;;3.10;99.90;;;;;;4934859;29;20446;-87
2021/01/22 05:23:07;;;;;;;8.85;2.20;;;3.10;99.90;;;;;;4933559;29;20126;-85
2021/01/22 05:25:33;;;;;;;9.18;2.60;;;3.10;99.90;;;;;;4933847;29;20764;-85
2021/01/22 05:28:00;;;;;;;8.65;2.50;;;3.20;99.90;;;;;;4933695;29;20085;-83
2021/01/22 05:30:30;;;;;;;11.05;2.95;;;3.10;99.90;;;;;;4935071;29;20441;-84
2021/01/22 05:33:16;;;;;;;10.02;3.40;;;3.10;99.90;;;;;;4950305;28;20509;-88
2021/01/22 05:35:43;;;;;;;11.52;2.42;;;3.10;99.90;;;;;;4933678;29;20486;-85
2021/01/22 05:38:09;;;;;;;8.88;2.45;;;3.10;99.90;;;;;;4935147;29;20058;-86
2021/01/22 05:40:34;;;;;;;7.93;2.42;;;3.10;99.90;;;;;;4933704;29;20044;-87
2021/01/22 05:43:00;;;;;;;4.43;1.90;;;3.20;99.90;;;;;;4933827;29;20635;-86
2021/01/22 05:45:37;;;;;;;11.57;2.55;;;3.20;99.90;;;;;;4934844;29;20120;-85
2021/01/22 05:48:04;;;;;;;9.88;2.53;;;3.20;99.90;;;;;;4933409;29;20094;-83
2021/01/22 05:50:50;;;;;;;12.07;1.90;;;3.20;99.90;;;;;;4918239;29;20055;-84
2021/01/22 05:53:18;;;;;;;7.68;2.20;;;3.20;99.90;;;;;;4933570;29;20501;-84
2021/01/22 05:55:44;;;;;;;8.85;2.05;;;3.20;99.90;;;;;;4933515;29;20052;-84
2021/01/22 05:58:10;;;;;;;7.18;1.92;;;3.20;99.90;;;;;;4933541;29;20071;-84
2021/01/22 06:00:36;;;;;;;24.75;3.67;;;3.20;99.90;;;;;;4934562;29;20461;-87
2021/01/22 06:03:27;;;;;;;9.20;2.22;;;3.20;99.90;;;;;;4933182;29;20054;-84
2021/01/22 06:05:53;;;;;;;5.35;2.28;;;3.20;99.90;;;;;;4926846;29;20060;-83
2021/01/22 06:08:19;;;;;;;9.30;2.53;;;3.10;99.90;;;;;;4932789;29;20043;-82
2021/01/22 06:10:47;;;;;;;7.22;2.88;;;3.20;99.90;;;;;;4930428;29;20565;-83
2021/01/22 06:13:13;;;;;;;12.18;3.58;;;3.20;99.90;;;;;;4932146;29;20043;-84
2021/01/22 06:15:40;;;;;;;12.18;3.10;;;3.20;99.90;;;;;;4944400;29;20043;-84
2021/01/22 06:18:08;;;;;;;3.92;2.53;;;3.20;99.90;;;;;;4931298;29;20075;-83
2021/01/22 06:20:41;;;;;;;10.50;2.92;;;3.20;99.90;;;;;;4920320;29;20119;-83
2021/01/22 06:23:14;;;;;;;7.97;2.83;;;3.30;99.90;;;;;;4930291;29;20036;-83
2021/01/22 06:25:42;;;;;;;14.38;3.22;;;3.30;99.90;;;;;;4932681;29;20064;-87
2021/01/22 06:28:12;;;;;;;14.32;3.35;;;3.40;99.90;;;;;;4932558;29;20474;-84
2021/01/22 06:30:42;;;;;;;11.52;3.30;;;3.40;99.90;;;;;;4949390;29;20066;-87
2021/01/22 06:33:08;;;;;;;13.45;3.35;;;3.30;99.90;;;;;;4932515;29;20036;-83
2021/01/22 06:35:36;;;;;;;15.45;4.00;;;3.30;99.90;;;;;;4933588;29;20043;-83
2021/01/22 06:38:03;;;;;;;13.77;4.22;;;3.40;99.90;;;;;;4929011;29;20059;-84
2021/01/22 06:40:29;;;;;;;14.25;3.95;;;3.40;99.90;;;;;;4916892;29;20040;-84
2021/01/22 06:42:56;;;;;;;12.45;4.28;;;3.40;99.90;;;;;;4915374;29;20070;-84
2021/01/22 06:45:23;;;;;;;14.10;4.13;;;3.40;99.90;;;;;;4932128;29;20516;-83
2021/01/22 06:48:03;;;;;;;14.07;4.55;;;3.40;99.90;;;;;;4915721;29;20135;-84
2021/01/22 06:50:30;;;;;;;19.80;5.10;;;3.40;99.90;;;;;;4933299;29;20531;-83
2021/01/22 06:53:14;;;;;;;20.02;5.55;;;3.30;99.90;;;;;;4915560;29;20088;-84
2021/01/22 06:55:52;;;;;;;20.55;5.35;;;3.40;99.90;;;;;;4921091;29;20051;-87
2021/01/22 06:58:24;;;;;;;22.67;5.75;;;3.30;99.90;;;;;;4930635;29;20074;-84
2021/01/22 07:00:57;;;;;;;16.65;5.50;;;3.30;99.90;;;;;;4919451;29;20048;-84
2021/01/22 07:03:35;;;;;;;17.35;5.63;;;3.30;99.90;;;;;;4951536;28;20111;-84
2021/01/22 07:06:27;;;;;;;15.15;5.22;;;3.40;99.90;;;;;;4920591;29;20043;-85
2021/01/22 07:08:55;;;;;;;20.58;5.63;;;3.40;99.90;;;;;;4931417;29;20039;-83
2021/01/22 07:11:21;;;;;;;20.73;6.25;;;3.40;99.90;;;;;;4931447;29;20063;-83
2021/01/22 07:13:47;;;;;;;13.90;5.45;;;3.30;99.90;;;;;;4931048;29;20474;-81
2021/01/22 07:16:16;;;;;;;24.23;6.00;;;3.40;99.90;;;;;;4914310;29;20047;-82
2021/01/22 07:18:55;;;;;;;28.95;6.55;;;3.40;99.90;;;;;;4932022;29;20075;-84
2021/01/22 07:21:39;;;;;;;20.48;5.20;;;3.40;99.90;;;;;;4932678;29;20406;-82
2021/01/22 07:24:08;;;;;;;33.85;6.35;;;3.50;99.90;;;;;;4930659;29;20120;-84
2021/01/22 07:26:44;;;;;;;34.88;6.15;;;3.50;99.90;;;;;;4915440;29;20075;-83
2021/01/22 07:29:15;;;;;;;17.70;5.57;;;3.50;99.90;;;;;;4946402;28;20040;-82
2021/01/22 07:32:05;;;;;;;32.83;6.00;;;3.60;99.90;;;;;;4931691;29;20054;-83
2021/01/22 07:34:43;;;;;;;26.40;5.40;;;3.50;99.90;;;;;;4916349;29;20040;-84
2021/01/22 07:37:13;;;;;;;24.55;5.65;;;3.50;99.90;;;;;;4930686;29;20205;-83
2021/01/22 07:39:41;;;;;;;19.48;5.53;;;3.50;99.90;;;;;;4930143;29;20055;-83
2021/01/22 07:42:10;;;;;;;23.63;5.75;;;3.50;99.90;;;;;;4930977;29;20041;-84
2021/01/22 07:44:37;;;;;;;18.65;6.28;;;3.40;99.90;;;;;;4926617;29;20082;-83
2021/01/22 07:47:05;;;;;;;18.75;6.82;;;3.50;99.90;;;;;;4929837;29;20044;-83
2021/01/22 07:49:32;;;;;;;22.80;7.28;;;3.40;99.90;;;;;;4929507;29;20079;-83
2021/01/22 07:52:02;;;;;;;23.70;6.72;;;3.50;99.90;;;;;;4918330;29;20051;-83
2021/01/22 07:54:39;;;;;;;;;;;3.50;99.90;;;;;;4931017;29;20665;-84
2021/01/22 07:57:22;;;;;;;17.02;6.63;;;3.60;99.90;;;;;;4913272;29;20052;-83
2021/01/22 07:59:49;;;;;;;22.75;5.05;;;3.60;99.90;;;;;;4924768;29;20046;-85
2021/01/22 08:02:22;;;;;;;18.60;5.20;;;3.60;99.90;;;;;;4911819;29;20040;-83
2021/01/22 08:04:59;;;;;;;23.70;5.07;;;3.60;99.90;;;;;;4913791;29;20044;-85
2021/01/22 08:07:41;;;;;;;15.55;5.43;;;3.60;99.90;;;;;;4922893;29;20036;-84
2021/01/22 08:10:11;;;;;;;18.33;5.03;;;3.60;99.90;;;;;;4918435;29;20107;-83
2021/01/22 08:12:53;;;;;;;19.52;4.57;;;3.50;99.90;;;;;;4923819;29;20056;-85
2021/01/22 08:15:19;;;;;;;18.90;4.63;;;3.50;99.90;;;;;;4929203;29;20482;-83
2021/01/22 08:17:47;;;;;;;20.50;4.38;;;3.50;99.90;;;;;;4933904;29;20052;-84
2021/01/22 08:20:14;;;;;;;22.15;4.55;;;3.50;99.90;;;;;;4914446;29;20494;-85
2021/01/22 08:22:41;;;;;;;21.88;4.75;;;3.50;99.90;;;;;;4917286;29;20048;-83
2021/01/22 08:25:07;;;;;;;21.40;4.63;;;3.50;99.90;;;;;;4920137;29;20120;-83
2021/01/22 08:27:33;;;;;;;19.83;5.63;;;3.40;99.90;;;;;;4930933;29;20568;-85
2021/01/22 08:30:00;;;;;;;19.83;4.95;;;3.50;99.90;;;;;;4933198;29;20051;-85
2021/01/22 08:32:28;;;;;;;22.77;5.82;;;3.50;99.90;;;;;;4915307;29;20039;-84
2021/01/22 08:34:55;;;;;;;20.83;5.32;;;3.60;99.90;;;;;;4913276;29;20036;-85
2021/01/22 08:37:22;;;;;;;23.52;5.55;;;3.50;99.90;;;;;;4913615;29;20425;-85
2021/01/22 08:39:59;;;;;;;19.00;5.50;;;3.50;99.90;;;;;;4916428;29;20394;-83
2021/01/22 08:42:27;;;;;;;14.30;4.80;;;3.50;99.90;;;;;;4924251;29;20394;-85
2021/01/22 08:44:58;;;;;;;14.13;4.50;;;3.50;99.90;;;;;;4925684;29;20552;-87
2021/01/22 08:47:26;;;;;;;24.60;5.07;;;3.50;99.90;;;;;;4940292;29;20036;-85
2021/01/22 08:50:00;;;;;;;15.43;4.32;;;3.40;99.90;;;;;;4929718;29;20039;-86
2021/01/22 08:52:27;;;;;;;19.77;4.90;;;3.50;99.90;;;;;;4933453;29;20130;-84
2021/01/22 08:54:57;;;;;;;21.67;4.20;;;3.60;99.90;;;;;;4918099;29;20051;-86
2021/01/22 08:57:32;;;;;;;18.13;4.55;;;3.50;99.90;;;;;;4935682;29;20056;-84
2021/01/22 08:59:59;;;;;;;21.48;4.57;;;3.50;99.90;;;;;;4926795;29;20044;-84
2021/01/22 09:02:54;;;;;;;25.17;4.15;;;3.40;99.90;;;;;;4937121;29;20040;-85
2021/01/22 09:05:20;;;;;;;21.00;4.68;;;3.50;99.90;;;;;;4930892;29;20055;-85
2021/01/22 09:08:03;;;;;;;21.65;4.40;;;3.50;99.90;;;;;;4918507;29;20044;-85
2021/01/22 09:10:30;;;;;;;20.38;3.90;;;3.50;99.90;;;;;;4934890;29;20586;-88
2021/01/22 09:13:14;;;;;;;19.77;4.07;;;3.60;99.90;;;;;;4936330;29;20040;-90
2021/01/22 09:15:40;;;;;;;30.42;4.93;;;3.60;99.90;;;;;;4934245;29;20043;-85
2021/01/22 09:18:15;;;;;;;21.13;3.60;;;3.60;99.90;;;;;;4950284;29;20094;-85
2021/01/22 09:20:44;;;;;;;11.63;3.13;;;3.60;99.90;;;;;;4927660;29;20048;-85
2021/01/22 09:23:10;;;;;;;24.17;4.72;;;3.60;99.90;;;;;;4902074;29;20047;-85
2021/01/22 09:25:36;;;;;;;14.35;4.10;;;3.60;99.90;;;;;;4919848;29;20132;-84
2021/01/22 09:28:02;;;;;;;14.93;3.75;;;3.60;99.90;;;;;;4925875;29;20040;-85
2021/01/22 09:30:28;;;;;;;19.75;4.03;;;3.70;99.90;;;;;;4931090;29;20050;-87
2021/01/22 09:32:57;;;;;;;19.05;3.50;;;3.80;99.90;;;;;;4935648;28;20127;-85
2021/01/22 09:35:25;;;;;;;22.85;3.95;;;3.80;99.90;;;;;;4920430;29;20036;-84
2021/01/22 09:37:50;;;;;;;24.27;3.20;;;3.80;99.90;;;;;;4919068;29;20068;-84
2021/01/22 09:40:19;;;;;;;10.57;3.10;;;3.80;99.90;;;;;;4920637;29;20062;-85
2021/01/22 09:42:45;;;;;;;14.07;3.25;;;3.90;99.90;;;;;;4917597;29;20516;-84
2021/01/22 09:45:13;;;;;;;17.77;3.10;;;3.90;99.90;;;;;;4916845;29;20047;-83
2021/01/22 09:47:39;;;;;;;19.17;3.50;;;4.00;99.90;;;;;;4934633;29;20055;-83
2021/01/22 09:50:07;;;;;;;11.82;2.72;;;4.00;99.90;;;;;;4914769;29;20063;-83
2021/01/22 09:52:39;;;;;;;25.60;3.78;;;4.00;99.90;;;;;;4930265;29;20348;-84
2021/01/22 09:55:19;;;;;;;18.52;3.90;;;4.10;99.90;;;;;;4931325;29;20886;-84
2021/01/22 09:57:45;;;;;;;23.27;4.00;;;4.00;99.90;;;;;;4932831;29;20043;-84
2021/01/22 10:00:14;;;;;;;12.43;3.00;;;4.10;99.90;;;;;;4916458;29;20311;-84
2021/01/22 10:02:41;;;;;;;17.38;3.55;;;4.10;99.90;;;;;;4938682;29;20066;-83
2021/01/22 10:05:07;;;;;;;15.93;3.22;;;4.10;99.90;;;;;;4916175;29;20198;-85
2021/01/22 10:07:33;;;;;;;17.63;3.22;;;4.20;99.90;;;;;;4932938;29;20059;-84
2021/01/22 10:09:59;;;;;;;28.73;4.05;;;4.20;99.90;;;;;;4916998;29;20048;-83
2021/01/22 10:12:25;;;;;;;20.65;4.30;;;4.20;99.90;;;;;;4932196;29;20425;-85
2021/01/22 10:14:51;;;;;;;21.27;3.70;;;4.30;99.90;;;;;;4932615;29;20075;-83
2021/01/22 10:17:16;;;;;;;18.60;4.20;;;4.30;99.90;;;;;;4932095;29;20044;-85
2021/01/22 10:19:42;;;;;;;13.10;3.17;;;4.40;99.90;;;;;;4932784;29;20047;-83
2021/01/22 10:22:08;;;;;;;19.40;4.03;;;4.40;99.90;;;;;;4931963;29;20047;-83
2021/01/22 10:24:34;;;;;;;19.95;5.05;;;4.50;99.90;;;;;;4916148;29;20379;-83
2021/01/22 10:27:00;;;;;;;14.73;4.13;;;4.60;99.90;;;;;;4901373;29;20119;-83
2021/01/22 10:29:25;;;;;;;22.90;4.47;;;4.60;99.90;;;;;;4915951;29;20046;-83
2021/01/22 10:31:51;;;;;;;16.70;4.82;;;4.70;99.90;;;;;;4932270;29;20058;-83
2021/01/22 10:34:17;;;;;;;28.08;5.78;;;4.80;99.90;;;;;;4931813;29;20130;-87
2021/01/22 10:36:43;;;;;;;16.58;4.85;;;4.90;99.90;;;;;;4932574;29;20091;-83
2021/01/22 10:39:10;;;;;;;22.52;5.22;;;5.00;99.90;;;;;;4915655;29;20048;-83
2021/01/22 10:41:37;;;;;;;16.13;4.25;;;5.20;99.90;;;;;;4931772;29;20036;-83
2021/01/22 10:44:04;;;;;;;19.50;4.30;;;5.20;99.90;;;;;;4947525;29;20052;-83
2021/01/22 10:46:31;;;;;;;17.42;3.75;;;5.30;99.90;;;;;;4946884;29;20056;-84
2021/01/22 10:48:59;;;;;;;14.95;3.85;;;5.30;99.90;;;;;;4913309;29;20430;-84
2021/01/22 10:51:25;;;;;;;16.13;3.97;;;5.40;99.90;;;;;;4945782;29;20237;-83
2021/01/22 10:53:50;;;;;;;16.73;3.53;;;5.40;99.90;;;;;;4931126;29;20481;-84
2021/01/22 10:56:16;;;;;;;19.67;4.10;;;5.50;99.90;;;;;;4931813;29;20075;-82
2021/01/22 10:58:42;;;;;;;27.67;3.95;;;5.60;99.90;;;;;;4932591;29;20075;-84
2021/01/22 11:01:08;;;;;;;14.38;2.88;;;5.60;99.90;;;;;;4915733;29;20463;-87
2021/01/22 11:03:34;;;;;;;12.73;3.03;;;5.60;99.90;;;;;;4929831;29;20057;-85
2021/01/22 11:06:00;;;;;;;18.75;3.83;;;5.60;99.90;;;;;;4930867;29;20079;-85
2021/01/22 11:08:25;;;;;;;24.48;3.25;;;5.70;99.90;;;;;;4930872;29;20086;-85
2021/01/22 11:10:51;;;;;;;24.00;3.35;;;5.70;99.90;;;;;;4916028;29;20106;-85
2021/01/22 11:13:17;;;;;;;21.38;3.38;;;5.80;99.90;;;;;;4915249;29;20055;-86
2021/01/22 11:15:43;;;;;;;20.70;3.88;;;5.90;99.90;;;;;;4932393;29;20073;-84
2021/01/22 11:18:10;;;;;;;22.00;3.42;;;6.00;99.90;;;;;;4927171;29;20066;-88
2021/01/22 11:20:37;;;;;;;16.63;3.40;;;6.00;99.90;;;;;;4926314;29;20084;-84
2021/01/22 11:23:03;;;;;;;18.38;4.20;;;6.10;99.90;;;;;;4927590;29;20054;-84
2021/01/22 11:25:29;;;;;;;22.02;4.18;;;6.10;99.90;;;;;;4928034;29;20063;-85
2021/01/22 11:27:55;;;;;;;18.42;3.58;;;6.10;99.90;;;;;;4924995;29;20084;-84
2021/01/22 11:30:21;;;;;;;14.70;4.15;;;6.10;99.90;;;;;;4912941;29;20095;-82
2021/01/22 11:32:47;;;;;;;13.50;3.00;;;6.10;99.90;;;;;;4918683;29;20048;-84
2021/01/22 11:35:13;;;;;;;18.35;3.53;;;6.10;99.90;;;;;;4930414;29;20479;-84
2021/01/22 11:37:40;;;;;;;18.13;3.58;;;6.10;99.90;;;;;;4913414;29;20047;-83
2021/01/22 11:40:08;;;;;;;24.33;3.60;;;6.10;99.90;;;;;;4929481;29;20043;-82
2021/01/22 11:42:35;;;;;;;21.48;4.05;;;6.10;99.90;;;;;;4928591;29;20096;-83
2021/01/22 11:45:01;;;;;;;21.10;3.03;;;6.10;99.90;;;;;;4931452;29;20771;-83
2021/01/22 11:47:27;;;;;;;27.38;4.22;;;6.10;99.90;;;;;;4912011;29;20076;-84
2021/01/22 11:49:53;;;;;;;22.63;3.90;;;6.10;99.90;;;;;;4911680;29;20608;-84
2021/01/22 11:52:19;;;;;;;29.50;3.95;;;6.20;99.90;;;;;;4915390;29;20513;-84
2021/01/22 11:54:44;;;;;;;15.65;2.90;;;6.20;99.90;;;;;;4917888;29;20055;-83
2021/01/22 11:57:10;;;;;;;17.75;3.33;;;6.40;99.90;;;;;;4903148;29;20098;-83
2021/01/22 11:59:36;;;;;;;21.20;3.78;;;6.40;99.90;;;;;;4929807;29;20036;-84
2021/01/22 12:02:02;;;;;;;15.65;2.83;;;6.50;99.90;;;;;;4935600;29;20054;-84
2021/01/22 12:04:28;;;;;;;14.43;2.95;;;6.40;99.90;;;;;;4930107;29;20493;-84
2021/01/22 12:06:54;;;;;;;21.10;3.50;;;6.40;99.90;;;;;;4929627;29;20123;-83
2021/01/22 12:09:20;;;;;;;15.35;2.60;;;6.30;99.90;;;;;;4930124;29;20071;-84
2021/01/22 12:11:46;;;;;;;19.40;4.57;;;6.30;99.90;;;;;;4914283;29;21572;-83
2021/01/22 12:14:12;;;;;;;26.98;3.95;;;6.30;99.90;;;;;;4928820;29;20134;-84
2021/01/22 12:16:37;;;;;;;16.38;3.92;;;6.40;99.90;;;;;;4929220;29;20627;-83
2021/01/22 12:19:04;;;;;;;17.08;3.03;;;6.50;99.90;;;;;;4929559;29;20048;-83
2021/01/22 12:21:31;;;;;;;18.20;2.95;;;6.40;99.90;;;;;;4919371;29;20255;-86
2021/01/22 12:23:57;;;;;;;19.55;3.88;;;6.50;99.90;;;;;;4931491;29;20485;-85
2021/01/22 12:26:23;;;;;;;18.95;3.08;;;6.60;99.90;;;;;;4929100;29;20047;-84
2021/01/22 12:28:49;;;;;;;22.33;3.10;;;6.70;99.90;;;;;;4928732;29;20051;-86
2021/01/22 12:31:15;;;;;;;22.38;2.78;;;6.80;99.90;;;;;;4929326;29;20050;-83
2021/01/22 12:33:41;;;;;;;20.80;2.67;;;6.90;99.90;;;;;;4930430;29;20368;-85
2021/01/22 12:36:07;;;;;;;19.38;2.65;;;6.90;99.90;;;;;;4921768;29;20490;-84
2021/01/22 12:38:34;;;;;;;27.20;3.58;;;6.90;99.90;;;;;;4929000;29;20050;-84
2021/01/22 12:41:01;;;;;;;11.60;2.40;;;6.90;99.90;;;;;;4897866;29;20126;-83
2021/01/22 12:43:27;;;;;;;21.25;2.80;;;6.80;99.90;;;;;;4928215;29;20059;-84
2021/01/22 12:45:53;;;;;;;14.20;2.63;;;6.80;99.90;;;;;;4928858;29;20405;-84
2021/01/22 12:48:19;;;;;;;29.35;4.32;;;6.90;99.90;;;;;;4913531;29;20079;-84
2021/01/22 12:50:45;;;;;;;18.40;3.13;;;6.90;99.90;;;;;;4929085;29;20047;-84
2021/01/22 12:53:11;;;;;;;19.52;2.90;;;7.10;99.90;;;;;;4930570;29;20062;-83
2021/01/22 12:55:37;;;;;;;18.55;3.65;;;7.10;99.40;;;;;;4928271;29;20050;-84
2021/01/22 12:58:03;;;;;;;18.17;2.65;;;7.10;99.60;;;;;;4930317;29;20094;-84
2021/01/22 13:00:30;;;;;;;23.15;3.58;;;7.20;99.80;;;;;;4927477;29;20415;-85